Swift Ace — C6XB8 — position and weather

sailwx.info

Track history (hours):
 
Tides and Currents Weather Stations Pressure Air Temp Water Temp Dewpoint Dewpoint Depression Visibility Wind Speed Wind Dir Waves Ship Positions

Swift Ace

Last reported at 2017-Jan-13 23:33 UTC. Time now 2017-Jan-17 21:27 UTC.
Position N 10°49' W 061°36'.

Length 200 m; draft 8.6 m.

Type: Cargo ship. MMSI: 310968322.

Date/timePositionNaut miles runAvg speedWind from/ knotsBaromVisibWave heightAir tempDewpointWater temp
2017-Jan-13 23:33N 10°49' W 061°36'1413.8
2017-Jan-13 22:33N 10°40' W 061°48'1413.7
2017-Jan-13 21:34N 10°38' W 061°34'3 2.6
2017-Jan-13 20:32N 10°39' W 061°31'0 0.0
2017-Jan-13 19:32N 10°39' W 061°31'0 0.0
2017-Jan-13 18:32N 10°39' W 061°31'0 0.0
2017-Jan-13 17:32N 10°39' W 061°31'0 0.0
2017-Jan-13 16:32N 10°39' W 061°31'0 0.0
2017-Jan-13 15:32N 10°39' W 061°31'0 0.0
2017-Jan-13 14:32N 10°39' W 061°31'0 0.0
2017-Jan-13 13:32N 10°39' W 061°31'0 0.0
2017-Jan-13 12:32N 10°39' W 061°31'0 0.0
2017-Jan-13 11:32N 10°39' W 061°31'0 0.0
2017-Jan-13 10:32N 10°39' W 061°31'0 0.0
2017-Jan-13 09:32N 10°39' W 061°31'0 0.0
2017-Jan-13 08:32N 10°39' W 061°31'0 0.0
2017-Jan-13 07:32N 10°39' W 061°31'2 2.3
2017-Jan-13 06:33N 10°38' W 061°33'7 7.2
2017-Jan-13 05:33N 10°37' W 061°41'9 9.5
2017-Jan-13 04:33N 10°41' W 061°50'1010.1
2017-Jan-13 03:33N 10°51' W 061°51'1211.5
2017-Jan-13 02:29N 11°03' W 061°55'  
2017-Jan-06 09:28N 14°36' W 061°10'4 0.4
2017-Jan-05 23:12N 14°32' W 061°10'6 1.7
2017-Jan-05 19:33N 14°38' W 061°11'59 3.1
2017-Jan-05 00:28N 15°34' W 061°33'1515.2
2017-Jan-04 23:27N 15°49' W 061°31'1315.0
2017-Jan-04 22:33N 16°02' W 061°31'10 9.9
2017-Jan-04 21:34N 16°12' W 061°32'2 1.8
2017-Jan-04 20:31N 16°14' W 061°33'0 0.0
2017-Jan-04 19:31N 16°14' W 061°33'0 0.0
2017-Jan-04 18:31N 16°14' W 061°33'0 0.0
2017-Jan-04 17:31N 16°14' W 061°33'0 0.0
2017-Jan-04 16:31N 16°14' W 061°33'0 0.0
2017-Jan-04 15:31N 16°14' W 061°33'0 0.0
2017-Jan-04 14:31N 16°14' W 061°33'0 0.0
2017-Jan-04 13:31N 16°14' W 061°33'0 0.0
2017-Jan-04 12:31N 16°14' W 061°33'0 0.0
2017-Jan-04 11:31N 16°14' W 061°33'0 0.0
2017-Jan-04 10:31N 16°14' W 061°33'0 0.0
2017-Jan-04 09:31N 16°14' W 061°33'0 0.0
2017-Jan-04 08:31N 16°14' W 061°33'0 0.0
2017-Jan-04 07:31N 16°14' W 061°33'0 0.0
2017-Jan-04 06:31N 16°14' W 061°33'0 0.0
2017-Jan-04 05:31N 16°14' W 061°33'0 0.0
2017-Jan-04 04:31N 16°14' W 061°33'0 0.0
2017-Jan-04 03:31N 16°14' W 061°33'0 0.0
2017-Jan-04 02:31N 16°14' W 061°33'0 0.0
2017-Jan-04 01:22N 16°14' W 061°33'0 0.0
2017-Jan-04 00:31N 16°14' W 061°33'  
Track history (hours):
 
Tides and Currents Weather Stations Pressure Air Temp Water Temp Dewpoint Dewpoint Depression Visibility Wind Speed Wind Dir Waves Ship Positions

Swift Ace

Last reported at 2017-Jan-13 23:33 UTC. Time now 2017-Jan-17 21:27 UTC.
Position N 10°49' W 061°36'.

Length 200 m; draft 8.6 m.

Type: Cargo ship. MMSI: 310968322.

Date/timePositionNaut miles runAvg speedWind from/ knotsBaromVisibWave heightAir tempDewpointWater temp
2017-Jan-13 23:33N 10°49' W 061°36'1413.8
2017-Jan-13 22:33N 10°40' W 061°48'1413.7
2017-Jan-13 21:34N 10°38' W 061°34'3 2.6
2017-Jan-13 20:32N 10°39' W 061°31'0 0.0
2017-Jan-13 19:32N 10°39' W 061°31'0 0.0
2017-Jan-13 18:32N 10°39' W 061°31'0 0.0
2017-Jan-13 17:32N 10°39' W 061°31'0 0.0
2017-Jan-13 16:32N 10°39' W 061°31'0 0.0
2017-Jan-13 15:32N 10°39' W 061°31'0 0.0
2017-Jan-13 14:32N 10°39' W 061°31'0 0.0
2017-Jan-13 13:32N 10°39' W 061°31'0 0.0
2017-Jan-13 12:32N 10°39' W 061°31'0 0.0
2017-Jan-13 11:32N 10°39' W 061°31'0 0.0
2017-Jan-13 10:32N 10°39' W 061°31'0 0.0
2017-Jan-13 09:32N 10°39' W 061°31'0 0.0
2017-Jan-13 08:32N 10°39' W 061°31'0 0.0
2017-Jan-13 07:32N 10°39' W 061°31'2 2.3
2017-Jan-13 06:33N 10°38' W 061°33'7 7.2
2017-Jan-13 05:33N 10°37' W 061°41'9 9.5
2017-Jan-13 04:33N 10°41' W 061°50'1010.1
2017-Jan-13 03:33N 10°51' W 061°51'1211.5
2017-Jan-13 02:29N 11°03' W 061°55'  
2017-Jan-06 09:28N 14°36' W 061°10'4 0.4
2017-Jan-05 23:12N 14°32' W 061°10'6 1.7
2017-Jan-05 19:33N 14°38' W 061°11'59 3.1
2017-Jan-05 00:28N 15°34' W 061°33'1515.2
2017-Jan-04 23:27N 15°49' W 061°31'1315.0
2017-Jan-04 22:33N 16°02' W 061°31'10 9.9
2017-Jan-04 21:34N 16°12' W 061°32'2 1.8
2017-Jan-04 20:31N 16°14' W 061°33'0 0.0
2017-Jan-04 19:31N 16°14' W 061°33'0 0.0
2017-Jan-04 18:31N 16°14' W 061°33'0 0.0
2017-Jan-04 17:31N 16°14' W 061°33'0 0.0
2017-Jan-04 16:31N 16°14' W 061°33'0 0.0
2017-Jan-04 15:31N 16°14' W 061°33'0 0.0
2017-Jan-04 14:31N 16°14' W 061°33'0 0.0
2017-Jan-04 13:31N 16°14' W 061°33'0 0.0
2017-Jan-04 12:31N 16°14' W 061°33'0 0.0
2017-Jan-04 11:31N 16°14' W 061°33'0 0.0
2017-Jan-04 10:31N 16°14' W 061°33'0 0.0
2017-Jan-04 09:31N 16°14' W 061°33'0 0.0
2017-Jan-04 08:31N 16°14' W 061°33'0 0.0
2017-Jan-04 07:31N 16°14' W 061°33'0 0.0
2017-Jan-04 06:31N 16°14' W 061°33'0 0.0
2017-Jan-04 05:31N 16°14' W 061°33'0 0.0
2017-Jan-04 04:31N 16°14' W 061°33'0 0.0
2017-Jan-04 03:31N 16°14' W 061°33'0 0.0
2017-Jan-04 02:31N 16°14' W 061°33'0 0.0
2017-Jan-04 01:22N 16°14' W 061°33'0 0.0
2017-Jan-04 00:31N 16°14' W 061°33'  

Dump ship's entire track history